createdAt,value
2018-07-21T00:00:35.072Z,23.31
2018-07-21T00:05:31.984Z,23.23
2018-07-21T00:10:27.644Z,23.08
2018-07-21T00:15:23.414Z,22.85
2018-07-21T00:20:19.049Z,22.69
2018-07-21T00:25:14.989Z,22.47
2018-07-21T00:30:11.183Z,22.33
2018-07-21T00:35:06.830Z,22.45
2018-07-21T00:40:03.553Z,22.38
2018-07-21T00:45:00.451Z,22.43
2018-07-21T00:49:56.194Z,22.48
2018-07-21T00:54:53.071Z,22.48
2018-07-21T00:59:50.112Z,22.50
2018-07-21T01:04:45.716Z,22.44
2018-07-21T01:09:41.628Z,22.45
2018-07-21T01:14:37.634Z,22.41
2018-07-21T01:19:34.476Z,22.30
2018-07-21T01:24:30.073Z,22.18
2018-07-21T01:29:26.126Z,22.00
2018-07-21T01:34:22.221Z,22.00
2018-07-21T01:39:18.065Z,22.06
2018-07-21T01:44:15.067Z,22.38
2018-07-21T01:49:11.719Z,22.23
2018-07-21T01:54:07.138Z,22.02
2018-07-21T01:59:02.948Z,22.14
2018-07-21T02:03:59.825Z,22.02
2018-07-21T02:08:55.302Z,21.89
2018-07-21T02:13:51.040Z,21.77
2018-07-21T02:18:47.233Z,21.76
2018-07-21T02:23:43.614Z,21.76
2018-07-21T02:28:40.363Z,21.79
2018-07-21T02:33:36.407Z,21.79
2018-07-21T02:38:33.285Z,21.75
2018-07-21T02:43:29.103Z,21.69
2018-07-21T02:48:25.319Z,21.61
2018-07-21T02:53:21.304Z,21.58
2018-07-21T02:58:17.297Z,21.55
2018-07-21T03:03:13.168Z,21.61
2018-07-21T03:08:09.088Z,21.40
2018-07-21T03:13:04.953Z,21.33
2018-07-21T03:18:00.695Z,21.12
2018-07-21T03:22:56.867Z,21.25
2018-07-21T03:27:53.044Z,21.25
2018-07-21T03:32:48.856Z,21.03
2018-07-21T03:37:44.638Z,20.99
2018-07-21T03:42:41.774Z,20.96
2018-07-21T03:47:37.591Z,20.81
2018-07-21T03:52:33.871Z,20.77
2018-07-21T03:57:29.822Z,20.84
2018-07-21T04:02:25.713Z,20.85
2018-07-21T04:07:21.734Z,20.92
2018-07-21T04:12:17.579Z,20.97
2018-07-21T04:17:13.990Z,20.93
2018-07-21T04:22:09.966Z,20.96
2018-07-21T04:27:06.834Z,20.90
2018-07-21T04:32:02.462Z,20.82
2018-07-21T04:36:58.661Z,20.96
2018-07-21T04:41:54.954Z,20.93
2018-07-21T04:46:50.818Z,21.03
2018-07-21T04:51:46.702Z,20.96
2018-07-21T04:56:42.595Z,21.00
2018-07-21T05:01:38.856Z,20.97
2018-07-21T05:06:34.847Z,21.00
2018-07-21T05:11:30.760Z,20.72
2018-07-21T05:16:26.425Z,20.55
2018-07-21T05:21:22.269Z,20.50
2018-07-21T05:26:18.348Z,20.66
2018-07-21T05:31:14.348Z,20.62
2018-07-21T05:36:10.175Z,20.67
2018-07-21T05:41:06.231Z,20.75
2018-07-21T05:46:02.275Z,20.81
2018-07-21T05:50:59.545Z,21.06
2018-07-21T05:55:55.404Z,21.43
2018-07-21T06:00:52.500Z,21.39
2018-07-21T06:05:48.145Z,21.18
2018-07-21T06:10:44.103Z,21.50
2018-07-21T06:15:41.222Z,21.82
2018-07-21T06:20:37.030Z,21.89
2018-07-21T06:25:34.414Z,21.87
2018-07-21T06:30:31.495Z,22.29
2018-07-21T06:35:28.398Z,22.20
2018-07-21T06:40:24.267Z,22.22
2018-07-21T06:45:20.464Z,22.50
2018-07-21T06:50:16.446Z,22.50
2018-07-21T06:55:13.721Z,22.75
2018-07-21T07:00:09.452Z,23.10
2018-07-21T07:05:06.634Z,22.90
2018-07-21T07:10:02.422Z,22.60
2018-07-21T07:14:58.344Z,22.68
2018-07-21T07:19:55.627Z,22.62
2018-07-21T07:24:51.660Z,22.94
2018-07-21T07:29:47.668Z,22.80
2018-07-21T07:34:43.605Z,22.65
2018-07-21T07:39:39.430Z,22.59
2018-07-21T07:44:35.738Z,22.60
2018-07-21T07:49:32.013Z,22.84
2018-07-21T07:54:29.308Z,23.34
2018-07-21T07:59:25.423Z,23.71
2018-07-21T08:04:21.827Z,23.48
2018-07-21T08:09:19.019Z,24.33
2018-07-21T08:14:16.864Z,25.13
2018-07-21T08:19:13.407Z,25.68
2018-07-21T08:24:09.757Z,25.77
2018-07-21T08:29:05.726Z,25.69
2018-07-21T08:34:02.463Z,25.38
2018-07-21T08:38:58.416Z,25.87
2018-07-21T08:43:54.492Z,24.91
2018-07-21T08:48:50.224Z,25.16
2018-07-21T08:53:46.772Z,25.28
2018-07-21T08:58:43.626Z,24.93
2018-07-21T09:03:39.034Z,24.80
2018-07-21T09:08:34.929Z,25.07
2018-07-21T09:13:31.061Z,25.07
2018-07-21T09:18:28.148Z,25.48
2018-07-21T09:23:24.160Z,25.66
2018-07-21T09:28:21.537Z,26.09
2018-07-21T09:33:19.727Z,26.62
2018-07-21T09:38:15.358Z,26.09
2018-07-21T09:43:11.854Z,26.03
2018-07-21T09:48:07.552Z,26.07
2018-07-21T09:53:03.484Z,26.63
2018-07-21T09:58:01.225Z,27.29
2018-07-21T10:02:57.654Z,27.11
2018-07-21T10:07:55.339Z,27.36
2018-07-21T10:12:51.529Z,27.82
2018-07-21T10:17:48.153Z,28.47
2018-07-21T10:22:46.060Z,28.17
2018-07-21T10:27:43.483Z,27.95
2018-07-21T10:32:38.617Z,28.44
2018-07-21T10:37:37.009Z,29.75
2018-07-21T10:42:34.632Z,29.94
2018-07-21T10:47:31.174Z,30.25
2018-07-21T10:52:28.162Z,29.60
2018-07-21T10:57:22.835Z,28.78
2018-07-21T11:02:19.196Z,28.42
2018-07-21T11:07:14.470Z,28.45
2018-07-21T11:12:11.136Z,29.31
2018-07-21T11:17:08.561Z,29.26
2018-07-21T11:22:05.767Z,30.06
2018-07-21T11:27:04.275Z,30.66
2018-07-21T11:32:02.630Z,30.09
2018-07-21T11:36:59.182Z,30.88
2018-07-21T11:41:56.911Z,32.59
2018-07-21T11:46:54.077Z,32.40
2018-07-21T11:51:50.956Z,33.17
2018-07-21T11:56:47.746Z,32.80
2018-07-21T12:01:43.317Z,32.33
2018-07-21T12:06:39.922Z,32.77
2018-07-21T12:11:37.368Z,32.23
2018-07-21T12:16:32.652Z,30.97
2018-07-21T12:21:28.129Z,31.39
2018-07-21T12:26:24.085Z,32.18
2018-07-21T12:31:20.354Z,31.84
2018-07-21T12:36:15.854Z,31.33
2018-07-21T12:41:12.144Z,32.64
2018-07-21T12:46:08.101Z,31.18
2018-07-21T12:51:03.377Z,30.57
2018-07-21T12:55:58.849Z,31.03
2018-07-21T13:00:55.351Z,30.81
2018-07-21T13:05:51.182Z,32.09
2018-07-21T13:10:47.990Z,31.27
2018-07-21T13:15:42.496Z,29.50
2018-07-21T13:20:38.401Z,29.54
2018-07-21T13:25:33.768Z,29.71
2018-07-21T13:30:30.125Z,30.77
2018-07-21T13:35:26.649Z,29.82
2018-07-21T13:40:22.087Z,29.45
2018-07-21T13:45:17.986Z,29.66
2018-07-21T13:50:14.141Z,29.54
2018-07-21T13:55:09.751Z,29.16
2018-07-21T14:00:05.459Z,29.29
2018-07-21T14:05:02.351Z,29.56
2018-07-21T14:09:58.289Z,29.26
2018-07-21T14:14:54.188Z,29.41
2018-07-21T14:19:49.871Z,29.19
2018-07-21T14:24:45.561Z,28.72
2018-07-21T14:29:41.043Z,28.76
2018-07-21T14:34:37.804Z,28.79
2018-07-21T14:39:34.578Z,28.93
2018-07-21T14:44:31.446Z,28.67
2018-07-21T14:49:28.214Z,28.66
2018-07-21T14:54:23.941Z,28.79
2018-07-21T14:59:19.871Z,28.38
2018-07-21T15:04:15.700Z,27.96
2018-07-21T15:09:11.651Z,28.00
2018-07-21T15:14:07.602Z,28.12
2018-07-21T15:19:03.978Z,28.04
2018-07-21T15:23:59.848Z,28.11
2018-07-21T15:28:56.053Z,28.23
2018-07-21T15:33:51.892Z,28.14
2018-07-21T15:38:47.831Z,28.00
2018-07-21T15:43:43.685Z,27.35
2018-07-21T15:48:39.561Z,26.51
2018-07-21T15:53:35.193Z,25.17
2018-07-21T15:58:31.130Z,24.16
2018-07-21T16:03:25.927Z,24.05
2018-07-21T16:08:22.171Z,23.59
2018-07-21T16:13:17.333Z,23.21
2018-07-21T16:18:14.247Z,23.17
2018-07-21T16:23:09.691Z,23.09
2018-07-21T16:28:05.580Z,22.72
2018-07-21T16:33:01.960Z,23.21
2018-07-21T16:37:58.142Z,23.34
2018-07-21T16:42:54.014Z,23.28
2018-07-21T16:47:50.513Z,23.43
2018-07-21T16:52:46.333Z,23.48
2018-07-21T16:57:42.244Z,23.31
2018-07-21T17:02:38.210Z,23.36
2018-07-21T17:07:34.761Z,23.44
2018-07-21T17:12:30.995Z,22.98
2018-07-21T17:17:26.885Z,22.78
2018-07-21T17:22:22.649Z,22.76
2018-07-21T17:27:18.570Z,22.78
2018-07-21T17:32:14.651Z,23.05
2018-07-21T17:37:10.447Z,22.75
2018-07-21T17:42:06.394Z,22.57
2018-07-21T17:47:02.511Z,22.51
2018-07-21T17:51:58.344Z,22.68
2018-07-21T17:56:54.269Z,22.84
2018-07-21T18:01:50.272Z,22.96
2018-07-21T18:06:46.312Z,23.05
2018-07-21T18:11:42.391Z,23.05
2018-07-21T18:16:38.375Z,23.05
2018-07-21T18:21:35.283Z,22.76
2018-07-21T18:26:32.348Z,22.72
2018-07-21T18:31:27.780Z,22.38
2018-07-21T18:36:24.488Z,22.07
2018-07-21T18:41:20.060Z,22.33
2018-07-21T18:46:15.932Z,22.20
2018-07-21T18:51:11.972Z,22.20
2018-07-21T18:56:07.786Z,22.15
2018-07-21T19:01:04.877Z,22.20
2018-07-21T19:06:00.462Z,22.07
2018-07-21T19:10:56.515Z,21.95
2018-07-21T19:15:52.376Z,21.83
2018-07-21T19:20:49.445Z,21.77
2018-07-21T19:25:44.897Z,21.69
2018-07-21T19:30:40.928Z,21.69
2018-07-21T19:35:36.578Z,21.70
2018-07-21T19:40:33.491Z,21.73
2018-07-21T19:45:29.255Z,21.67
2018-07-21T19:50:25.390Z,21.85
2018-07-21T19:55:21.335Z,21.42
2018-07-21T20:00:17.419Z,21.25
2018-07-21T20:05:13.283Z,21.43
2018-07-21T20:10:09.115Z,21.33
2018-07-21T20:15:05.096Z,21.35
2018-07-21T20:20:00.962Z,21.24
2018-07-21T20:24:56.917Z,21.43
2018-07-21T20:29:52.903Z,21.48
2018-07-21T20:34:49.803Z,21.60
2018-07-21T20:39:45.552Z,21.75
2018-07-21T20:44:41.719Z,21.66
2018-07-21T20:49:37.463Z,21.61
2018-07-21T20:54:33.582Z,21.45
2018-07-21T20:59:29.504Z,21.27
2018-07-21T21:04:26.357Z,21.15
2018-07-21T21:09:23.110Z,21.09
2018-07-21T21:14:19.051Z,21.03
2018-07-21T21:19:14.967Z,20.99
2018-07-21T21:24:10.974Z,21.25
2018-07-21T21:29:06.920Z,21.06
2018-07-21T21:34:03.795Z,21.11
2018-07-21T21:38:59.523Z,21.15
2018-07-21T21:43:56.456Z,21.27
2018-07-21T21:48:52.833Z,21.24
2018-07-21T21:53:48.600Z,21.14
2018-07-21T21:58:44.529Z,21.14
2018-07-21T22:03:41.129Z,21.37
2018-07-21T22:08:37.647Z,21.20
2018-07-21T22:13:33.340Z,21.00
2018-07-21T22:18:30.192Z,20.95
2018-07-21T22:23:25.812Z,21.18
2018-07-21T22:28:21.797Z,20.88
2018-07-21T22:33:18.084Z,20.95
2018-07-21T22:38:13.894Z,20.70
2018-07-21T22:43:09.453Z,20.74
2018-07-21T22:48:05.521Z,20.63
2018-07-21T22:53:01.447Z,20.84
2018-07-21T22:57:58.785Z,21.00
2018-07-21T23:02:54.553Z,20.88
2018-07-21T23:07:51.063Z,20.81
2018-07-21T23:12:47.895Z,20.72
2018-07-21T23:17:43.585Z,20.93
2018-07-21T23:22:40.704Z,20.85
2018-07-21T23:27:37.268Z,20.84
2018-07-21T23:32:33.327Z,20.82
2018-07-21T23:37:30.373Z,20.67
2018-07-21T23:42:26.260Z,20.50
2018-07-21T23:47:21.990Z,20.39
2018-07-21T23:52:18.552Z,20.24
2018-07-21T23:57:14.224Z,20.26
